createdAt,value
2022-11-10T07:44:58.014Z,87.41
2022-11-10T07:47:24.762Z,87.70
2022-11-10T07:49:51.346Z,87.52
2022-11-10T07:52:18.051Z,87.50
2022-11-10T07:54:44.729Z,87.60
2022-11-10T07:57:11.297Z,87.12
2022-11-10T07:59:37.877Z,86.81
2022-11-10T08:02:04.547Z,87.59
2022-11-10T08:04:31.247Z,87.42
2022-11-10T08:06:59.025Z,86.90
2022-11-10T08:09:32.207Z,86.46
2022-11-10T08:11:58.857Z,85.77
2022-11-10T08:14:26.180Z,85.70
2022-11-10T08:16:52.862Z,86.09
2022-11-10T08:19:30.440Z,86.66
2022-11-10T08:21:57.038Z,85.95
2022-11-10T08:24:23.797Z,85.81
2022-11-10T08:26:50.408Z,86.01
2022-11-10T08:29:23.708Z,85.86
2022-11-10T08:31:51.119Z,86.29
2022-11-10T08:34:18.067Z,86.87
2022-11-10T08:36:45.002Z,86.56
2022-11-10T08:39:13.286Z,85.85
2022-11-10T08:41:44.020Z,85.91
2022-11-10T08:44:11.138Z,86.00
2022-11-10T08:46:38.323Z,85.95
2022-11-10T08:49:04.884Z,86.30
2022-11-10T08:51:36.290Z,86.51
2022-11-10T08:54:05.489Z,86.43
2022-11-10T08:56:32.096Z,86.14
2022-11-10T08:58:58.728Z,85.66
2022-11-10T09:01:25.320Z,85.82
2022-11-10T09:03:52.037Z,86.30
2022-11-10T09:06:18.639Z,86.03
2022-11-10T09:08:45.282Z,85.18
2022-11-10T09:11:11.859Z,84.52
2022-11-10T09:13:38.445Z,84.35
2022-11-10T09:16:05.724Z,83.86
2022-11-10T09:18:32.817Z,84.13
2022-11-10T09:20:59.612Z,83.91
2022-11-10T09:23:26.547Z,84.35
2022-11-10T09:25:54.720Z,84.37
2022-11-10T09:28:21.801Z,84.18
2022-11-10T09:30:49.726Z,83.98
2022-11-10T09:33:16.767Z,84.34
2022-11-10T09:35:43.410Z,84.21
2022-11-10T09:38:10.521Z,84.07
2022-11-10T09:40:55.867Z,83.84
2022-11-10T09:43:37.525Z,83.58
2022-11-10T09:46:11.218Z,83.17
2022-11-10T09:48:42.933Z,83.33
2022-11-10T09:51:22.402Z,83.09
2022-11-10T09:53:51.923Z,82.10
2022-11-10T09:56:21.686Z,81.29
2022-11-10T09:58:48.412Z,81.16
2022-11-10T10:01:34.802Z,80.49
2022-11-10T10:04:20.397Z,78.38
2022-11-10T10:07:11.989Z,78.11
2022-11-10T10:09:50.115Z,77.76
2022-11-10T10:12:37.765Z,77.69
2022-11-10T10:15:25.663Z,77.68
2022-11-10T10:17:52.484Z,78.54
2022-11-10T10:20:27.561Z,79.03
2022-11-10T10:23:20.859Z,79.48
2022-11-10T10:25:53.366Z,80.47
2022-11-10T10:28:23.377Z,80.84
2022-11-10T10:30:50.336Z,81.22
2022-11-10T10:33:21.598Z,81.60
2022-11-10T10:35:49.488Z,82.18
2022-11-10T10:38:22.408Z,82.79
2022-11-10T10:40:50.587Z,83.35
2022-11-10T10:43:17.207Z,83.46
2022-11-10T10:45:43.938Z,83.47
2022-11-10T10:48:29.392Z,83.78
2022-11-10T10:50:56.030Z,84.24
2022-11-10T10:53:23.815Z,84.50
2022-11-10T10:55:53.284Z,84.78
2022-11-10T10:58:22.024Z,84.40
2022-11-10T11:01:09.151Z,84.19
2022-11-10T11:03:41.138Z,84.27
2022-11-10T11:06:18.669Z,84.14
2022-11-10T11:08:58.333Z,83.71
2022-11-10T11:11:36.928Z,83.73
2022-11-10T11:14:14.079Z,83.44
2022-11-10T11:17:00.955Z,83.42
2022-11-10T11:19:30.796Z,83.41
2022-11-10T11:22:00.551Z,83.13
2022-11-10T11:24:41.777Z,82.87
2022-11-10T11:27:17.156Z,82.60
2022-11-10T11:29:49.729Z,82.06
2022-11-10T11:32:32.838Z,81.33
2022-11-10T11:35:20.148Z,81.05
2022-11-10T11:38:01.773Z,80.22
2022-11-10T11:40:35.063Z,79.92
2022-11-10T11:43:14.381Z,79.99
2022-11-10T11:45:44.291Z,81.43
2022-11-10T11:48:36.678Z,82.16
2022-11-10T11:51:12.432Z,80.48
2022-11-10T11:53:51.633Z,78.88
2022-11-10T11:56:39.928Z,78.80
2022-11-10T11:59:41.505Z,77.35
2022-11-10T12:02:28.955Z,77.79
2022-11-10T12:05:04.530Z,77.60
2022-11-10T12:07:43.258Z,77.36
2022-11-10T12:10:15.789Z,77.29
2022-11-10T12:13:02.343Z,77.05
2022-11-10T12:15:28.996Z,77.27
2022-11-10T12:17:58.349Z,76.96
2022-11-10T12:20:34.009Z,76.95
2022-11-10T12:23:00.571Z,76.34
2022-11-10T12:25:49.394Z,77.18
2022-11-10T12:28:22.907Z,76.26
2022-11-10T12:30:51.613Z,76.33
2022-11-10T12:33:18.287Z,76.53
2022-11-10T12:35:46.281Z,76.05
2022-11-10T12:38:26.213Z,75.78
2022-11-10T12:40:57.878Z,75.83
2022-11-10T12:43:44.200Z,75.74
2022-11-10T12:46:12.809Z,76.48
2022-11-10T12:48:45.403Z,75.92
2022-11-10T12:51:25.935Z,76.25
2022-11-10T12:53:53.043Z,76.66
2022-11-10T12:56:25.546Z,76.49
2022-11-10T12:59:10.653Z,76.56
2022-11-10T13:01:43.117Z,76.26
2022-11-10T13:04:13.619Z,76.16
2022-11-10T13:06:47.182Z,76.49
2022-11-10T13:09:23.391Z,76.76
2022-11-10T13:12:08.536Z,77.02
2022-11-10T13:14:35.553Z,77.06
2022-11-10T13:17:02.192Z,77.31
2022-11-10T13:19:30.029Z,76.36
2022-11-10T13:22:06.212Z,76.01
2022-11-10T13:24:43.495Z,75.82
2022-11-10T13:27:11.924Z,75.05
2022-11-10T13:29:47.728Z,75.28
2022-11-10T13:32:14.511Z,74.95
2022-11-10T13:34:42.248Z,75.24
2022-11-10T13:37:28.149Z,75.07
2022-11-10T13:40:14.715Z,75.64
2022-11-10T13:42:46.973Z,75.26
2022-11-10T13:45:32.751Z,75.89
2022-11-10T13:48:11.562Z,75.66
2022-11-10T13:51:04.585Z,75.86
2022-11-10T13:53:51.141Z,75.68
2022-11-10T13:56:33.008Z,75.77
2022-11-10T13:59:04.470Z,76.36
2022-11-10T14:01:31.251Z,76.24
2022-11-10T14:04:02.511Z,76.97
2022-11-10T14:06:40.860Z,76.91
2022-11-10T14:09:16.384Z,76.91
2022-11-10T14:11:49.748Z,77.42
2022-11-10T14:14:16.906Z,77.46
2022-11-10T14:16:43.957Z,77.46
2022-11-10T14:19:28.262Z,77.34
2022-11-10T14:22:01.073Z,77.22
2022-11-10T14:24:29.442Z,76.97
2022-11-10T14:27:00.465Z,76.98
2022-11-10T14:29:32.043Z,77.15
2022-11-10T14:32:00.636Z,78.00
2022-11-10T14:34:28.093Z,78.00
2022-11-10T14:36:56.034Z,78.31
2022-11-10T14:39:36.499Z,78.17
2022-11-10T14:42:04.756Z,78.20
2022-11-10T14:44:33.200Z,78.17
2022-11-10T14:47:10.487Z,78.17
2022-11-10T14:49:44.862Z,78.43
2022-11-10T14:52:13.835Z,78.66
2022-11-10T14:54:44.217Z,78.29
2022-11-10T14:57:16.428Z,77.83
2022-11-10T14:59:43.733Z,77.83
2022-11-10T15:02:14.315Z,79.38
2022-11-10T15:04:45.771Z,82.03
2022-11-10T15:07:14.756Z,85.11
2022-11-10T15:10:01.839Z,85.81
2022-11-10T15:12:29.345Z,82.52
2022-11-10T15:14:59.440Z,82.71
2022-11-10T15:17:36.649Z,81.12
2022-11-10T15:20:04.164Z,80.01
2022-11-10T15:22:34.696Z,79.89
2022-11-10T15:25:08.239Z,80.13
2022-11-10T15:27:35.678Z,80.93
2022-11-10T15:30:03.664Z,79.12
2022-11-10T15:32:34.765Z,77.97
2022-11-10T15:35:10.746Z,77.78
2022-11-10T15:37:38.129Z,78.76
2022-11-10T15:40:15.415Z,77.80
2022-11-10T15:42:42.460Z,79.07
2022-11-10T15:45:09.623Z,78.56
2022-11-10T15:47:36.817Z,78.56
2022-11-10T15:50:04.186Z,79.02
2022-11-10T15:52:32.248Z,78.91
2022-11-10T15:54:59.672Z,78.87
2022-11-10T15:57:27.125Z,78.96
2022-11-10T15:59:54.493Z,79.25
2022-11-10T16:02:23.695Z,78.99
2022-11-10T16:04:57.024Z,78.71
2022-11-10T16:07:27.225Z,78.74
2022-11-10T16:09:54.798Z,79.51
2022-11-10T16:12:23.096Z,80.39
2022-11-10T16:14:54.377Z,80.33
2022-11-10T16:17:23.415Z,79.70
2022-11-10T16:19:50.990Z,80.12
2022-11-10T16:22:18.431Z,80.12
2022-11-10T16:24:46.478Z,80.17
2022-11-10T16:27:15.423Z,80.52
2022-11-10T16:29:43.660Z,80.29
2022-11-10T16:32:12.477Z,79.95
2022-11-10T16:34:40.483Z,80.58
2022-11-10T16:37:09.738Z,81.06
2022-11-10T16:39:37.216Z,81.03
2022-11-10T16:42:04.614Z,81.43
2022-11-10T16:44:34.362Z,81.99
2022-11-10T16:47:04.073Z,83.24
2022-11-10T16:49:34.775Z,82.20
2022-11-10T16:52:05.128Z,83.28
2022-11-10T16:54:32.506Z,81.80
2022-11-10T16:57:00.064Z,80.76
2022-11-10T16:59:27.507Z,80.44
2022-11-10T17:01:55.815Z,82.04
2022-11-10T17:04:23.238Z,81.70
2022-11-10T17:06:50.687Z,81.56
2022-11-10T17:09:27.486Z,81.73
2022-11-10T17:11:58.152Z,81.74
2022-11-10T17:14:25.476Z,81.31
2022-11-10T17:16:52.754Z,82.21
2022-11-10T17:19:24.072Z,81.49
2022-11-10T17:21:53.912Z,80.82
2022-11-10T17:24:21.871Z,80.48
2022-11-10T17:26:49.304Z,79.76
2022-11-10T17:29:21.508Z,80.01
2022-11-10T17:31:50.734Z,79.05
2022-11-10T17:34:18.201Z,79.24
2022-11-10T17:36:45.425Z,79.74
2022-11-10T17:39:16.695Z,80.02
2022-11-10T17:41:44.038Z,80.11
2022-11-10T17:44:14.019Z,79.69
2022-11-10T17:46:42.101Z,80.36
2022-11-10T17:49:09.708Z,80.99
2022-11-10T17:51:37.699Z,80.72
2022-11-10T17:54:06.981Z,81.01
2022-11-10T17:56:37.223Z,80.86
2022-11-10T17:59:04.481Z,80.66
2022-11-10T18:01:31.903Z,80.66
2022-11-10T18:03:59.876Z,80.87
2022-11-10T18:06:28.297Z,81.42
2022-11-10T18:08:55.557Z,82.38
2022-11-10T18:11:22.899Z,81.94
2022-11-10T18:13:50.490Z,81.24
2022-11-10T18:16:18.060Z,80.99
2022-11-10T18:18:45.453Z,81.72
2022-11-10T18:21:14.128Z,81.29
2022-11-10T18:23:43.358Z,82.05
2022-11-10T18:26:12.260Z,81.15
2022-11-10T18:28:40.359Z,81.57
2022-11-10T18:31:08.731Z,81.64
2022-11-10T18:33:40.551Z,82.11
2022-11-10T18:36:09.355Z,82.15
2022-11-10T18:38:38.509Z,82.67
2022-11-10T18:41:26.486Z,82.15
2022-11-10T18:43:53.854Z,82.94
2022-11-10T18:46:21.312Z,82.47
2022-11-10T18:48:48.710Z,82.25
2022-11-10T18:51:18.936Z,83.00
2022-11-10T18:53:46.200Z,82.71
2022-11-10T18:56:14.793Z,82.37
2022-11-10T18:58:42.386Z,82.05
2022-11-10T19:01:10.942Z,82.08
2022-11-10T19:03:38.291Z,82.55
2022-11-10T19:06:05.903Z,82.35
2022-11-10T19:08:33.437Z,82.92
2022-11-10T19:11:00.802Z,83.03
2022-11-10T19:13:28.061Z,83.34
2022-11-10T19:15:57.165Z,82.95
2022-11-10T19:18:24.572Z,81.96
2022-11-10T19:20:51.828Z,82.55
2022-11-10T19:23:18.986Z,81.76
2022-11-10T19:25:46.272Z,81.91
2022-11-10T19:28:13.288Z,81.67
2022-11-10T19:30:40.657Z,81.03
2022-11-10T19:33:08.775Z,81.15
2022-11-10T19:35:42.488Z,81.18
2022-11-10T19:38:09.762Z,81.58
2022-11-10T19:40:39.618Z,81.43
2022-11-10T19:43:06.613Z,81.61
2022-11-10T19:45:34.566Z,82.03
2022-11-10T19:48:01.887Z,82.31
2022-11-10T19:50:29.084Z,81.61
2022-11-10T19:52:56.270Z,81.19
2022-11-10T19:55:23.379Z,80.38
2022-11-10T19:57:50.509Z,80.42
2022-11-10T20:00:17.949Z,79.77
2022-11-10T20:02:45.828Z,79.67
2022-11-10T20:05:17.601Z,80.64
2022-11-10T20:07:54.911Z,79.35
2022-11-10T20:10:22.098Z,79.44
2022-11-10T20:12:49.346Z,79.43
2022-11-10T20:15:16.677Z,78.80
2022-11-10T20:17:44.094Z,78.62
2022-11-10T20:20:12.111Z,79.57
2022-11-10T20:22:39.560Z,79.17
2022-11-10T20:25:06.934Z,78.80
2022-11-10T20:27:34.361Z,78.01
2022-11-10T20:30:01.574Z,78.29
2022-11-10T20:32:28.899Z,78.05
2022-11-10T20:34:55.994Z,78.80
2022-11-10T20:37:23.442Z,78.65
2022-11-10T20:39:50.623Z,78.50
2022-11-10T20:42:18.077Z,78.01
2022-11-10T20:44:48.056Z,78.43
2022-11-10T20:47:15.058Z,78.05
2022-11-10T20:49:42.341Z,78.02
2022-11-10T20:52:09.427Z,79.14
2022-11-10T20:54:38.889Z,78.75
2022-11-10T20:57:06.115Z,79.05
2022-11-10T20:59:33.729Z,78.42
2022-11-10T21:02:01.025Z,77.79
2022-11-10T21:04:28.313Z,78.01
2022-11-10T21:06:55.507Z,78.82
2022-11-10T21:09:22.740Z,78.35
2022-11-10T21:12:00.236Z,78.19
2022-11-10T21:14:30.323Z,78.19
2022-11-10T21:17:00.005Z,78.04
2022-11-10T21:19:27.273Z,78.31
2022-11-10T21:21:54.504Z,78.36
2022-11-10T21:24:21.602Z,79.10
2022-11-10T21:26:49.517Z,77.80
2022-11-10T21:29:16.652Z,76.89
2022-11-10T21:31:44.747Z,77.26
2022-11-10T21:34:12.155Z,77.32
2022-11-10T21:36:39.978Z,77.48
2022-11-10T21:39:07.296Z,77.55
2022-11-10T21:41:34.251Z,77.30
2022-11-10T21:44:01.287Z,77.61
2022-11-10T21:46:28.260Z,78.07
2022-11-10T21:48:55.409Z,77.75
2022-11-10T21:51:22.369Z,78.38
2022-11-10T21:53:49.682Z,78.25
2022-11-10T21:56:16.572Z,78.51
2022-11-10T21:58:43.846Z,78.73
2022-11-10T22:01:13.733Z,78.63
2022-11-10T22:03:41.053Z,78.81
2022-11-10T22:06:09.022Z,79.06
2022-11-10T22:08:36.422Z,79.32
2022-11-10T22:11:12.676Z,79.71
2022-11-10T22:13:48.681Z,80.06
2022-11-10T22:16:34.701Z,79.55
2022-11-10T22:19:01.682Z,79.66
2022-11-10T22:21:28.522Z,79.86
2022-11-10T22:24:04.755Z,80.44
2022-11-10T22:26:31.676Z,80.72
2022-11-10T22:28:58.688Z,80.09
2022-11-10T22:31:25.441Z,80.01
2022-11-10T22:33:52.208Z,79.89
2022-11-10T22:36:19.724Z,80.20
2022-11-10T22:38:46.780Z,80.77
2022-11-10T22:41:24.282Z,80.82
2022-11-10T22:44:00.755Z,81.03
2022-11-10T22:46:27.618Z,80.86
2022-11-10T22:48:54.520Z,80.88
2022-11-10T22:51:21.736Z,80.95
2022-11-10T22:53:48.739Z,81.05
2022-11-10T22:56:15.453Z,81.96
2022-11-10T22:58:42.256Z,82.17
2022-11-10T23:01:10.151Z,81.72
2022-11-10T23:03:37.319Z,81.60
2022-11-10T23:06:04.425Z,81.30
2022-11-10T23:08:31.654Z,81.45
2022-11-10T23:11:00.610Z,82.07
2022-11-10T23:13:27.655Z,81.87
2022-11-10T23:15:58.810Z,81.08
2022-11-10T23:18:26.165Z,80.94
2022-11-10T23:21:00.755Z,80.38
2022-11-10T23:23:28.275Z,80.25
2022-11-10T23:25:55.955Z,80.23
2022-11-10T23:28:22.681Z,79.90
2022-11-10T23:30:49.359Z,80.20
2022-11-10T23:33:16.025Z,79.89
2022-11-10T23:35:42.686Z,79.79
2022-11-10T23:38:09.499Z,79.83
2022-11-10T23:40:36.138Z,79.62
2022-11-10T23:43:02.785Z,79.49
2022-11-10T23:45:46.169Z,79.69
2022-11-10T23:48:16.100Z,79.79
2022-11-10T23:50:43.114Z,78.72
2022-11-10T23:53:09.833Z,77.82
2022-11-10T23:55:36.659Z,77.89
2022-11-10T23:58:03.784Z,77.92
